createdAt,value
2023-05-10T00:00:45.061Z,2.70
2023-05-10T00:03:13.318Z,2.42
2023-05-10T00:05:41.836Z,2.55
2023-05-10T00:08:10.024Z,2.65
2023-05-10T00:10:39.644Z,2.83
2023-05-10T00:13:07.867Z,2.70
2023-05-10T00:15:36.478Z,2.75
2023-05-10T00:18:07.549Z,2.65
2023-05-10T00:20:35.836Z,2.63
2023-05-10T00:23:04.052Z,3.05
2023-05-10T00:25:32.201Z,2.25
2023-05-10T00:28:02.725Z,2.40
2023-05-10T00:30:31.000Z,2.78
2023-05-10T00:32:59.404Z,2.65
2023-05-10T00:35:28.148Z,2.53
2023-05-10T00:37:56.379Z,2.78
2023-05-10T00:40:24.719Z,2.50
2023-05-10T00:42:57.592Z,2.50
2023-05-10T00:45:27.973Z,2.25
2023-05-10T00:47:57.005Z,2.20
2023-05-10T00:50:25.997Z,2.50
2023-05-10T00:52:54.460Z,2.30
2023-05-10T00:55:22.858Z,2.55
2023-05-10T00:57:51.300Z,2.78
2023-05-10T01:00:20.300Z,2.45
2023-05-10T01:02:50.632Z,2.55
2023-05-10T01:05:19.093Z,1.98
2023-05-10T01:07:47.408Z,2.05
2023-05-10T01:10:16.643Z,2.28
2023-05-10T01:12:47.206Z,2.33
2023-05-10T01:15:18.954Z,2.10
2023-05-10T01:17:50.203Z,2.40
2023-05-10T01:20:19.474Z,2.33
2023-05-10T01:23:12.803Z,1.67
2023-05-10T01:26:16.987Z,1.85
2023-05-10T01:29:07.361Z,2.33
2023-05-10T01:32:08.468Z,2.03
2023-05-10T01:34:39.486Z,1.95
2023-05-10T01:37:13.125Z,2.03
2023-05-10T01:39:47.712Z,2.58
2023-05-10T01:42:19.988Z,2.13
2023-05-10T01:44:54.946Z,1.95
2023-05-10T01:47:33.010Z,2.35
2023-05-10T01:50:05.359Z,2.33
2023-05-10T01:52:38.737Z,1.98
2023-05-10T01:55:11.293Z,2.00
2023-05-10T01:57:42.803Z,2.25
2023-05-10T02:00:13.038Z,1.95
2023-05-10T02:02:48.623Z,2.38
2023-05-10T02:05:18.440Z,2.30
2023-05-10T02:07:47.015Z,1.80
2023-05-10T02:10:16.498Z,1.58
2023-05-10T02:12:48.104Z,2.17
2023-05-10T02:15:21.970Z,1.80
2023-05-10T02:17:51.902Z,1.83
2023-05-10T02:20:22.380Z,1.92
2023-05-10T02:22:53.802Z,2.10
2023-05-10T02:25:23.505Z,1.85
2023-05-10T02:27:53.679Z,2.35
2023-05-10T02:30:22.632Z,2.17
2023-05-10T02:32:54.087Z,2.40
2023-05-10T02:35:22.875Z,1.90
2023-05-10T02:37:52.245Z,2.10
2023-05-10T02:40:23.009Z,1.98
2023-05-10T02:42:54.298Z,2.10
2023-05-10T02:45:27.187Z,1.60
2023-05-10T02:47:57.333Z,2.10
2023-05-10T02:50:27.751Z,2.13
2023-05-10T02:53:02.621Z,1.98
2023-05-10T02:55:36.817Z,2.15
2023-05-10T02:58:05.588Z,2.20
2023-05-10T03:00:34.053Z,2.08
2023-05-10T03:03:03.872Z,2.30
2023-05-10T03:05:32.129Z,3.17
2023-05-10T03:08:07.070Z,2.60
2023-05-10T03:10:44.969Z,2.70
2023-05-10T03:13:31.056Z,2.20
2023-05-10T03:16:08.761Z,1.80
2023-05-10T03:18:44.801Z,2.40
2023-05-10T03:21:16.227Z,2.22
2023-05-10T03:23:48.407Z,1.80
2023-05-10T03:26:22.696Z,2.53
2023-05-10T03:28:52.864Z,1.90
2023-05-10T03:31:21.275Z,2.28
2023-05-10T03:33:51.674Z,2.20
2023-05-10T03:36:24.903Z,2.10
2023-05-10T03:38:53.979Z,2.10
2023-05-10T03:41:22.660Z,2.00
2023-05-10T03:43:50.981Z,2.28
2023-05-10T03:46:19.369Z,2.00
2023-05-10T03:48:48.048Z,2.00
2023-05-10T03:51:17.585Z,3.33
2023-05-10T03:53:45.785Z,3.75
2023-05-10T03:56:13.991Z,3.00
2023-05-10T03:58:42.178Z,3.05
2023-05-10T04:01:10.636Z,3.25
2023-05-10T04:03:39.187Z,2.08
2023-05-10T04:06:10.031Z,3.45
2023-05-10T04:08:39.724Z,2.70
2023-05-10T04:11:08.789Z,3.40
2023-05-10T04:13:37.165Z,2.85
2023-05-10T04:16:05.809Z,2.55
2023-05-10T04:18:34.068Z,1.90
2023-05-10T04:21:02.221Z,2.50
2023-05-10T04:23:30.381Z,2.00
2023-05-10T04:26:03.834Z,2.50
2023-05-10T04:28:32.161Z,2.47
2023-05-10T04:31:04.990Z,2.63
2023-05-10T04:33:34.020Z,2.05
2023-05-10T04:36:02.785Z,2.35
2023-05-10T04:38:31.495Z,2.13
2023-05-10T04:41:08.249Z,2.10
2023-05-10T04:43:36.855Z,1.98
2023-05-10T04:46:05.453Z,2.00
2023-05-10T04:48:36.493Z,2.35
2023-05-10T04:51:07.523Z,2.10
2023-05-10T04:53:35.709Z,2.15
2023-05-10T04:56:03.959Z,2.08
2023-05-10T04:58:33.507Z,2.55
2023-05-10T05:01:07.512Z,2.50
2023-05-10T05:03:35.905Z,2.40
2023-05-10T05:06:04.670Z,2.55
2023-05-10T05:08:33.053Z,2.40
2023-05-10T05:11:01.359Z,2.47
2023-05-10T05:13:29.607Z,2.25
2023-05-10T05:15:59.326Z,2.53
2023-05-10T05:18:27.518Z,2.67
2023-05-10T05:20:55.722Z,2.70
2023-05-10T05:23:26.954Z,2.40
2023-05-10T05:25:55.154Z,2.83
2023-05-10T05:28:23.354Z,2.53
2023-05-10T05:30:51.525Z,2.63
2023-05-10T05:33:21.078Z,2.50
2023-05-10T05:35:54.731Z,2.60
2023-05-10T05:38:25.643Z,2.58
2023-05-10T05:40:53.778Z,2.40
2023-05-10T05:43:21.924Z,2.63
2023-05-10T05:45:50.289Z,2.70
2023-05-10T05:48:19.900Z,2.58
2023-05-10T05:50:48.258Z,2.45
2023-05-10T05:53:16.750Z,2.65
2023-05-10T05:55:53.951Z,2.65
2023-05-10T05:58:25.510Z,2.90
2023-05-10T06:00:54.241Z,2.38
2023-05-10T06:03:27.089Z,2.60
2023-05-10T06:05:55.405Z,2.65
2023-05-10T06:08:26.763Z,2.75
2023-05-10T06:10:54.994Z,2.80
2023-05-10T06:13:23.198Z,2.80
2023-05-10T06:15:52.213Z,2.90
2023-05-10T06:18:20.351Z,2.08
2023-05-10T06:20:51.228Z,2.65
2023-05-10T06:23:19.469Z,2.95
2023-05-10T06:25:47.646Z,2.65
2023-05-10T06:28:15.841Z,2.70
2023-05-10T06:30:44.609Z,2.80
2023-05-10T06:33:12.813Z,2.20
2023-05-10T06:35:40.995Z,2.60
2023-05-10T06:38:10.530Z,2.63
2023-05-10T06:40:38.828Z,2.70
2023-05-10T06:43:07.015Z,2.30
2023-05-10T06:45:35.173Z,2.67
2023-05-10T06:48:03.552Z,2.17
2023-05-10T06:50:31.955Z,2.65
2023-05-10T06:53:00.210Z,2.40
2023-05-10T06:55:30.171Z,2.42
2023-05-10T06:57:58.327Z,2.40
2023-05-10T07:00:26.958Z,2.70
2023-05-10T07:02:55.968Z,2.92
2023-05-10T07:05:28.830Z,3.63
2023-05-10T07:07:57.258Z,2.58
2023-05-10T07:10:25.405Z,2.38
2023-05-10T07:12:55.086Z,2.30
2023-05-10T07:15:23.821Z,2.30
2023-05-10T07:17:52.993Z,2.97
2023-05-10T07:20:21.435Z,2.60
2023-05-10T07:22:49.588Z,2.88
2023-05-10T07:25:18.107Z,2.75
2023-05-10T07:27:46.953Z,2.70
2023-05-10T07:30:17.108Z,3.00
2023-05-10T07:32:45.473Z,2.97
2023-05-10T07:35:13.661Z,2.80
2023-05-10T07:37:41.869Z,2.67
2023-05-10T07:40:13.201Z,3.83
2023-05-10T07:42:41.375Z,2.60
2023-05-10T07:45:10.611Z,2.75
2023-05-10T07:47:40.197Z,2.40
2023-05-10T07:50:09.848Z,2.53
2023-05-10T07:52:38.054Z,2.40
2023-05-10T07:55:08.222Z,2.97
2023-05-10T07:57:36.552Z,3.00
2023-05-10T08:00:05.470Z,3.80
2023-05-10T08:02:43.213Z,2.30
2023-05-10T08:05:11.695Z,2.88
2023-05-10T08:07:39.844Z,3.80
2023-05-10T08:10:09.875Z,2.92
2023-05-10T08:12:38.008Z,2.75
2023-05-10T08:15:07.574Z,2.60
2023-05-10T08:17:35.770Z,2.70
2023-05-10T08:20:06.308Z,2.63
2023-05-10T08:22:34.480Z,2.42
2023-05-10T08:25:02.719Z,2.78
2023-05-10T08:27:30.904Z,2.20
2023-05-10T08:29:59.087Z,2.50
2023-05-10T08:32:27.314Z,2.53
2023-05-10T08:34:55.472Z,2.30
2023-05-10T08:37:25.322Z,2.42
2023-05-10T08:39:54.504Z,2.22
2023-05-10T08:42:28.040Z,2.20
2023-05-10T08:44:57.267Z,2.08
2023-05-10T08:47:25.683Z,2.15
2023-05-10T08:49:54.309Z,1.88
2023-05-10T08:52:27.989Z,1.83
2023-05-10T08:54:56.240Z,1.85
2023-05-10T08:57:27.642Z,2.13
2023-05-10T08:59:55.962Z,2.00
2023-05-10T09:02:25.876Z,2.05
2023-05-10T09:04:54.374Z,1.88
2023-05-10T09:07:25.491Z,1.80
2023-05-10T09:09:59.278Z,1.75
2023-05-10T09:12:27.546Z,1.67
2023-05-10T09:14:57.196Z,1.98
2023-05-10T09:17:26.590Z,1.65
2023-05-10T09:20:00.288Z,2.30
2023-05-10T09:22:28.990Z,1.80
2023-05-10T09:25:08.991Z,2.95
2023-05-10T09:27:37.658Z,2.83
2023-05-10T09:30:07.549Z,2.30
2023-05-10T09:32:39.318Z,2.58
2023-05-10T09:35:12.155Z,2.17
2023-05-10T09:37:43.477Z,3.38
2023-05-10T09:40:18.822Z,2.10
2023-05-10T09:42:55.069Z,2.20
2023-05-10T09:45:26.795Z,1.83
2023-05-10T09:47:55.080Z,2.35
2023-05-10T09:50:24.499Z,1.70
2023-05-10T09:52:53.966Z,1.80
2023-05-10T09:55:25.564Z,1.90
2023-05-10T09:58:02.120Z,1.70
2023-05-10T10:00:30.636Z,1.38
2023-05-10T10:03:00.480Z,1.67
2023-05-10T10:05:32.104Z,1.92
2023-05-10T10:08:00.961Z,1.52
2023-05-10T10:10:31.137Z,1.50
2023-05-10T10:12:59.356Z,2.30
2023-05-10T10:15:27.898Z,2.13
2023-05-10T10:17:56.504Z,1.58
2023-05-10T10:20:26.065Z,1.70
2023-05-10T10:22:55.345Z,1.50
2023-05-10T10:25:24.291Z,1.73
2023-05-10T10:28:18.407Z,1.73
2023-05-10T10:30:50.353Z,2.00
2023-05-10T10:33:42.238Z,2.00
2023-05-10T10:36:10.668Z,1.77
2023-05-10T10:38:40.615Z,2.17
2023-05-10T10:41:28.825Z,1.75
2023-05-10T10:44:35.740Z,1.60
2023-05-10T10:47:09.245Z,1.90
2023-05-10T10:49:45.901Z,1.42
2023-05-10T10:52:27.705Z,1.60
2023-05-10T10:55:01.217Z,1.67
2023-05-10T10:57:31.097Z,1.98
2023-05-10T11:00:23.698Z,1.55
2023-05-10T11:02:55.615Z,1.20
2023-05-10T11:05:45.386Z,1.60
2023-05-10T11:08:17.061Z,1.48
2023-05-10T11:11:11.030Z,1.65
2023-05-10T11:13:44.262Z,1.70
2023-05-10T11:16:19.990Z,1.70
2023-05-10T11:18:56.125Z,1.50
2023-05-10T11:21:27.312Z,1.30
2023-05-10T11:23:58.259Z,1.48
2023-05-10T11:26:27.452Z,1.85
2023-05-10T11:28:57.377Z,1.55
2023-05-10T11:31:27.982Z,1.25
2023-05-10T11:33:58.152Z,1.67
2023-05-10T11:36:28.233Z,1.50
2023-05-10T11:38:57.156Z,1.20
2023-05-10T11:41:26.467Z,1.15
2023-05-10T11:43:55.755Z,1.13
2023-05-10T11:46:27.620Z,1.15
2023-05-10T11:48:57.732Z,1.40
2023-05-10T11:51:27.192Z,1.20
2023-05-10T11:53:58.616Z,1.13
2023-05-10T11:56:27.524Z,1.33
2023-05-10T11:58:56.779Z,1.40
2023-05-10T12:01:27.031Z,1.60
2023-05-10T12:04:01.174Z,1.60
2023-05-10T12:06:31.991Z,1.63
2023-05-10T12:09:01.314Z,1.25
2023-05-10T12:11:30.803Z,1.60
2023-05-10T12:13:59.000Z,1.83
2023-05-10T12:16:31.472Z,1.30
2023-05-10T12:19:01.102Z,1.35
2023-05-10T12:21:31.367Z,1.60
2023-05-10T12:24:03.314Z,1.60
2023-05-10T12:26:32.169Z,1.80
2023-05-10T12:29:15.829Z,1.55
2023-05-10T12:32:00.868Z,1.50
2023-05-10T12:34:32.289Z,1.40
2023-05-10T12:37:00.712Z,1.58
2023-05-10T12:39:39.101Z,1.50
2023-05-10T12:42:07.377Z,1.70
2023-05-10T12:44:35.557Z,1.42
2023-05-10T12:47:05.352Z,1.60
2023-05-10T12:49:33.988Z,1.55
2023-05-10T12:52:02.367Z,1.50
2023-05-10T12:54:30.772Z,1.58
2023-05-10T12:56:58.961Z,1.50
2023-05-10T12:59:27.151Z,1.33
2023-05-10T13:01:55.447Z,1.45
2023-05-10T13:04:25.012Z,1.38
2023-05-10T13:06:53.209Z,1.55
2023-05-10T13:09:22.196Z,1.55
2023-05-10T13:11:51.354Z,1.65
2023-05-10T13:14:21.288Z,1.00
2023-05-10T13:16:49.732Z,1.25
2023-05-10T13:19:18.676Z,1.48
2023-05-10T13:21:48.346Z,1.30
2023-05-10T13:24:16.685Z,1.17
2023-05-10T13:26:45.340Z,1.70
2023-05-10T13:29:13.989Z,2.05
2023-05-10T13:31:42.209Z,1.73
2023-05-10T13:34:10.500Z,1.58
2023-05-10T13:36:39.086Z,1.40
2023-05-10T13:39:09.435Z,1.35
2023-05-10T13:41:37.763Z,1.42
2023-05-10T13:44:06.056Z,1.45
2023-05-10T13:46:34.316Z,1.52
2023-05-10T13:49:03.749Z,1.45
2023-05-10T13:51:32.565Z,1.20
2023-05-10T13:54:00.803Z,1.50
2023-05-10T13:56:30.520Z,1.58
2023-05-10T13:58:59.348Z,1.40
2023-05-10T14:01:27.753Z,1.58
2023-05-10T14:03:56.265Z,1.40
2023-05-10T14:06:24.569Z,1.60
2023-05-10T14:08:53.091Z,1.38
2023-05-10T14:11:23.919Z,1.60
2023-05-10T14:13:54.306Z,1.70
2023-05-10T14:16:23.805Z,1.73
2023-05-10T14:18:52.238Z,1.27
2023-05-10T14:21:20.611Z,1.73
2023-05-10T14:23:48.939Z,2.05
2023-05-10T14:26:17.118Z,1.73
2023-05-10T14:28:45.298Z,1.85
2023-05-10T14:31:18.065Z,1.23
2023-05-10T14:33:46.308Z,2.80
2023-05-10T14:36:14.622Z,1.60
2023-05-10T14:38:43.106Z,1.73
2023-05-10T14:41:15.040Z,1.23
2023-05-10T14:43:43.433Z,1.70
2023-05-10T14:46:11.635Z,1.25
2023-05-10T14:48:41.431Z,1.60
2023-05-10T14:51:09.649Z,1.58
2023-05-10T14:53:37.927Z,1.42
2023-05-10T14:56:06.356Z,1.63
2023-05-10T14:58:34.797Z,1.85
2023-05-10T15:01:03.247Z,1.70
2023-05-10T15:03:32.450Z,1.70
2023-05-10T15:06:03.227Z,1.67
2023-05-10T15:08:31.653Z,1.40
2023-05-10T15:10:59.974Z,1.58
2023-05-10T15:13:29.484Z,1.50
2023-05-10T15:15:57.822Z,1.20
2023-05-10T15:18:26.717Z,1.60
2023-05-10T15:20:56.301Z,1.58
2023-05-10T15:23:29.715Z,1.02
2023-05-10T15:25:58.083Z,1.40
2023-05-10T15:28:26.289Z,1.48
2023-05-10T15:30:54.525Z,1.50
2023-05-10T15:33:22.680Z,1.50
2023-05-10T15:35:50.867Z,1.65
2023-05-10T15:38:19.037Z,1.80
2023-05-10T15:40:48.644Z,1.50
2023-05-10T15:43:17.260Z,1.60
2023-05-10T15:45:45.461Z,1.80
2023-05-10T15:48:13.731Z,1.48
2023-05-10T15:50:42.230Z,1.50
2023-05-10T15:53:10.408Z,1.55
2023-05-10T15:55:38.640Z,1.35
2023-05-10T15:58:08.205Z,1.80
2023-05-10T16:00:36.491Z,1.60
2023-05-10T16:03:04.837Z,1.70
2023-05-10T16:05:33.706Z,1.23
2023-05-10T16:08:02.379Z,1.40
2023-05-10T16:10:33.961Z,1.38
2023-05-10T16:13:03.350Z,1.30
2023-05-10T16:15:35.250Z,1.70
2023-05-10T16:18:03.583Z,1.45
2023-05-10T16:20:33.348Z,2.05
2023-05-10T16:23:07.869Z,1.75
2023-05-10T16:25:36.319Z,1.50
2023-05-10T16:28:04.541Z,1.85
2023-05-10T16:30:34.111Z,1.38
2023-05-10T16:33:03.316Z,1.65
2023-05-10T16:35:31.609Z,1.55
2023-05-10T16:37:59.786Z,1.40
2023-05-10T16:40:27.929Z,1.33
2023-05-10T16:42:56.110Z,1.50
2023-05-10T16:45:25.729Z,1.40
2023-05-10T16:47:56.662Z,1.20
2023-05-10T16:50:25.094Z,1.10
2023-05-10T16:52:53.451Z,1.55
2023-05-10T16:55:26.206Z,1.50
2023-05-10T16:57:59.570Z,1.33
2023-05-10T17:00:28.104Z,1.60
2023-05-10T17:02:57.805Z,1.65
2023-05-10T17:05:26.006Z,1.58
2023-05-10T17:07:56.584Z,1.90
2023-05-10T17:10:25.017Z,1.65
2023-05-10T17:12:53.944Z,1.75
2023-05-10T17:15:24.394Z,1.83
2023-05-10T17:17:52.663Z,1.75
2023-05-10T17:20:22.923Z,1.65
2023-05-10T17:22:51.113Z,1.65
2023-05-10T17:25:19.938Z,1.50
2023-05-10T17:27:48.360Z,1.55
2023-05-10T17:30:16.940Z,1.30
2023-05-10T17:32:45.144Z,1.73
2023-05-10T17:35:13.350Z,1.75
2023-05-10T17:37:44.059Z,1.60
2023-05-10T17:40:13.065Z,1.90
2023-05-10T17:42:41.866Z,1.55
2023-05-10T17:45:11.558Z,1.85
2023-05-10T17:47:39.765Z,1.60
2023-05-10T17:50:10.056Z,1.60
2023-05-10T17:52:38.335Z,1.40
2023-05-10T17:55:09.285Z,1.67
2023-05-10T17:57:38.681Z,1.50
2023-05-10T18:00:08.771Z,1.67
2023-05-10T18:02:37.738Z,1.40
2023-05-10T18:05:06.720Z,1.25
2023-05-10T18:07:35.833Z,1.40
2023-05-10T18:10:04.310Z,1.40
2023-05-10T18:12:33.901Z,1.67
2023-05-10T18:15:02.314Z,1.58
2023-05-10T18:17:30.926Z,1.52
2023-05-10T18:19:59.153Z,2.03
2023-05-10T18:22:27.751Z,1.70
2023-05-10T18:24:56.132Z,2.38
2023-05-10T18:27:27.190Z,1.90
2023-05-10T18:29:56.966Z,2.10
2023-05-10T18:32:25.565Z,2.47
2023-05-10T18:34:55.656Z,2.45
2023-05-10T18:37:26.408Z,2.65
2023-05-10T18:39:57.683Z,1.77
2023-05-10T18:42:26.622Z,2.38
2023-05-10T18:44:56.584Z,1.92
2023-05-10T18:47:27.633Z,2.05
2023-05-10T18:49:56.209Z,2.03
2023-05-10T18:52:27.577Z,2.85
2023-05-10T18:54:55.817Z,1.88
2023-05-10T18:57:24.021Z,2.30
2023-05-10T18:59:52.278Z,2.22
2023-05-10T19:02:21.937Z,2.08
2023-05-10T19:04:50.192Z,2.58
2023-05-10T19:07:18.614Z,2.08
2023-05-10T19:09:46.867Z,3.00
2023-05-10T19:12:15.048Z,2.42
2023-05-10T19:14:46.488Z,2.20
2023-05-10T19:17:14.821Z,2.10
2023-05-10T19:19:44.646Z,2.28
2023-05-10T19:22:13.958Z,2.38
2023-05-10T19:24:42.286Z,2.30
2023-05-10T19:27:10.729Z,2.78
2023-05-10T19:29:38.906Z,2.50
2023-05-10T19:32:07.136Z,1.83
2023-05-10T19:34:35.551Z,2.47
2023-05-10T19:37:05.215Z,2.05
2023-05-10T19:39:33.418Z,2.60
2023-05-10T19:42:02.641Z,2.33
2023-05-10T19:44:30.911Z,2.78
2023-05-10T19:47:00.342Z,2.15
2023-05-10T19:49:29.074Z,2.40
2023-05-10T19:51:57.382Z,2.53
2023-05-10T19:54:26.952Z,2.65
2023-05-10T19:56:55.287Z,2.65
2023-05-10T19:59:23.472Z,2.63
2023-05-10T20:01:51.637Z,2.78
2023-05-10T20:04:19.791Z,2.50
2023-05-10T20:06:48.003Z,2.45
2023-05-10T20:09:19.301Z,2.28
2023-05-10T20:11:49.805Z,2.38
2023-05-10T20:14:18.530Z,2.15
2023-05-10T20:16:46.748Z,2.50
2023-05-10T20:19:14.953Z,2.58
2023-05-10T20:21:43.316Z,2.97
2023-05-10T20:24:11.444Z,2.08
2023-05-10T20:26:39.623Z,2.25
2023-05-10T20:29:09.881Z,2.45
2023-05-10T20:31:38.107Z,2.40
2023-05-10T20:34:06.392Z,2.65
2023-05-10T20:36:34.641Z,2.17
2023-05-10T20:39:03.028Z,2.10
2023-05-10T20:41:31.310Z,2.50
2023-05-10T20:43:59.433Z,2.38
2023-05-10T20:46:30.231Z,2.20
2023-05-10T20:48:58.419Z,2.72
2023-05-10T20:51:26.989Z,2.50
2023-05-10T20:53:56.960Z,2.25
2023-05-10T20:56:25.160Z,2.20
2023-05-10T20:58:53.297Z,2.10
2023-05-10T21:01:21.651Z,2.55
2023-05-10T21:03:53.882Z,2.30
2023-05-10T21:06:22.016Z,1.98
2023-05-10T21:08:50.140Z,2.67
2023-05-10T21:11:18.324Z,2.17
2023-05-10T21:13:46.461Z,2.30
2023-05-10T21:16:14.648Z,1.98
2023-05-10T21:18:44.118Z,2.50
2023-05-10T21:21:13.980Z,2.22
2023-05-10T21:23:42.225Z,2.63
2023-05-10T21:26:10.357Z,2.38
2023-05-10T21:28:40.089Z,2.42
2023-05-10T21:31:08.413Z,2.03
2023-05-10T21:33:36.536Z,2.45
2023-05-10T21:36:05.312Z,2.30
2023-05-10T21:38:37.881Z,2.30
2023-05-10T21:41:08.148Z,2.40
2023-05-10T21:43:36.345Z,1.95
2023-05-10T21:46:04.645Z,2.40
2023-05-10T21:48:32.863Z,2.65
2023-05-10T21:51:01.582Z,2.55
2023-05-10T21:53:29.918Z,2.20
2023-05-10T21:55:59.502Z,2.80
2023-05-10T21:58:27.727Z,2.38
2023-05-10T22:00:56.097Z,2.70
2023-05-10T22:03:27.200Z,2.42
2023-05-10T22:05:55.368Z,2.90
2023-05-10T22:08:23.617Z,2.72
2023-05-10T22:10:53.054Z,2.65
2023-05-10T22:13:23.764Z,2.30
2023-05-10T22:15:52.337Z,2.97
2023-05-10T22:18:21.024Z,2.42
2023-05-10T22:20:49.242Z,2.40
2023-05-10T22:23:17.438Z,2.17
2023-05-10T22:25:45.585Z,2.42
2023-05-10T22:28:13.717Z,2.95
2023-05-10T22:30:45.718Z,2.30
2023-05-10T22:33:13.904Z,2.30
2023-05-10T22:35:42.056Z,2.42
2023-05-10T22:38:10.228Z,2.60
2023-05-10T22:40:38.393Z,2.20
2023-05-10T22:43:06.651Z,2.30
2023-05-10T22:45:37.700Z,2.67
2023-05-10T22:48:09.534Z,2.90
2023-05-10T22:50:37.957Z,2.58
2023-05-10T22:53:06.649Z,2.17
2023-05-10T22:55:36.421Z,2.33
2023-05-10T22:58:08.095Z,2.55
2023-05-10T23:00:36.264Z,2.35
2023-05-10T23:03:04.643Z,2.45
2023-05-10T23:05:35.554Z,1.90
2023-05-10T23:08:07.044Z,2.50
2023-05-10T23:10:37.413Z,2.60
2023-05-10T23:13:05.830Z,2.70
2023-05-10T23:15:36.040Z,2.53
2023-05-10T23:18:05.786Z,2.83
2023-05-10T23:20:35.909Z,2.55
2023-05-10T23:23:05.679Z,2.50
2023-05-10T23:25:33.843Z,2.70
2023-05-10T23:28:01.988Z,2.47
2023-05-10T23:30:31.478Z,2.28
2023-05-10T23:33:03.065Z,2.20
2023-05-10T23:35:31.246Z,2.30
2023-05-10T23:38:00.730Z,2.25
2023-05-10T23:40:28.971Z,2.65
2023-05-10T23:42:57.116Z,2.95
2023-05-10T23:45:25.253Z,2.38
2023-05-10T23:47:53.489Z,2.28
2023-05-10T23:50:22.031Z,2.42
2023-05-10T23:52:50.205Z,1.88
2023-05-10T23:55:19.833Z,2.40
2023-05-10T23:57:47.976Z,2.25
